sensor_id;sensor_type;location;lat;lon;timestamp;P1;durP1;ratioP1;P2;durP2;ratioP2
27383;SDS011;14851;51.166;4.760;2023-07-31T00:01:07;13.55;;;4.65;;
27383;SDS011;14851;51.166;4.760;2023-07-31T00:03:33;11.38;;;5.40;;
27383;SDS011;14851;51.166;4.760;2023-07-31T00:05:58;12.43;;;4.40;;
27383;SDS011;14851;51.166;4.760;2023-07-31T00:08:24;11.98;;;4.40;;
27383;SDS011;14851;51.166;4.760;2023-07-31T00:10:53;14.65;;;5.13;;
27383;SDS011;14851;51.166;4.760;2023-07-31T00:13:21;10.90;;;4.80;;
27383;SDS011;14851;51.166;4.760;2023-07-31T00:15:47;8.80;;;4.53;;
27383;SDS011;14851;51.166;4.760;2023-07-31T00:18:13;11.10;;;4.82;;
27383;SDS011;14851;51.166;4.760;2023-07-31T00:20:39;12.13;;;4.88;;
27383;SDS011;14851;51.166;4.760;2023-07-31T00:23:07;14.55;;;4.88;;
27383;SDS011;14851;51.166;4.760;2023-07-31T00:25:33;13.65;;;5.05;;
27383;SDS011;14851;51.166;4.760;2023-07-31T00:27:59;14.70;;;4.93;;
27383;SDS011;14851;51.166;4.760;2023-07-31T00:30:25;14.63;;;5.00;;
27383;SDS011;14851;51.166;4.760;2023-07-31T00:32:53;13.68;;;5.65;;
27383;SDS011;14851;51.166;4.760;2023-07-31T00:35:19;14.07;;;5.32;;
27383;SDS011;14851;51.166;4.760;2023-07-31T00:37:45;14.75;;;5.30;;
27383;SDS011;14851;51.166;4.760;2023-07-31T00:40:13;15.50;;;5.22;;
27383;SDS011;14851;51.166;4.760;2023-07-31T00:42:41;15.50;;;5.55;;
27383;SDS011;14851;51.166;4.760;2023-07-31T00:45:07;14.13;;;5.68;;
27383;SDS011;14851;51.166;4.760;2023-07-31T00:47:35;13.77;;;5.47;;
27383;SDS011;14851;51.166;4.760;2023-07-31T00:50:04;11.27;;;5.05;;
27383;SDS011;14851;51.166;4.760;2023-07-31T00:52:31;13.63;;;4.97;;
27383;SDS011;14851;51.166;4.760;2023-07-31T00:54:56;12.80;;;4.25;;
27383;SDS011;14851;51.166;4.760;2023-07-31T00:57:22;14.27;;;5.32;;
27383;SDS011;14851;51.166;4.760;2023-07-31T00:59:52;14.52;;;5.43;;
27383;SDS011;14851;51.166;4.760;2023-07-31T01:02:20;13.57;;;4.65;;
27383;SDS011;14851;51.166;4.760;2023-07-31T01:04:46;11.43;;;4.78;;
27383;SDS011;14851;51.166;4.760;2023-07-31T01:10:11;13.98;;;5.30;;
27383;SDS011;14851;51.166;4.760;2023-07-31T01:12:42;12.23;;;5.20;;
27383;SDS011;14851;51.166;4.760;2023-07-31T01:15:10;14.60;;;5.57;;
27383;SDS011;14851;51.166;4.760;2023-07-31T01:17:37;17.83;;;6.13;;
27383;SDS011;14851;51.166;4.760;2023-07-31T01:20:07;13.35;;;5.10;;
27383;SDS011;14851;51.166;4.760;2023-07-31T01:31:29;12.07;;;4.97;;
27383;SDS011;14851;51.166;4.760;2023-07-31T01:33:56;13.50;;;5.45;;
27383;SDS011;14851;51.166;4.760;2023-07-31T01:36:25;12.37;;;5.63;;
27383;SDS011;14851;51.166;4.760;2023-07-31T01:39:03;14.00;;;5.25;;
27383;SDS011;14851;51.166;4.760;2023-07-31T01:41:29;15.82;;;5.32;;
27383;SDS011;14851;51.166;4.760;2023-07-31T01:43:55;12.77;;;5.00;;
27383;SDS011;14851;51.166;4.760;2023-07-31T01:46:22;20.38;;;5.53;;
27383;SDS011;14851;51.166;4.760;2023-07-31T01:48:48;15.57;;;5.60;;
27383;SDS011;14851;51.166;4.760;2023-07-31T01:51:14;14.27;;;5.18;;
27383;SDS011;14851;51.166;4.760;2023-07-31T01:53:40;17.17;;;5.47;;
27383;SDS011;14851;51.166;4.760;2023-07-31T01:56:07;13.18;;;5.65;;
27383;SDS011;14851;51.166;4.760;2023-07-31T01:58:33;15.73;;;5.65;;
27383;SDS011;14851;51.166;4.760;2023-07-31T02:00:59;16.38;;;5.10;;
27383;SDS011;14851;51.166;4.760;2023-07-31T02:03:27;14.38;;;5.00;;
27383;SDS011;14851;51.166;4.760;2023-07-31T02:05:53;10.13;;;5.13;;
27383;SDS011;14851;51.166;4.760;2023-07-31T02:08:20;15.30;;;5.25;;
27383;SDS011;14851;51.166;4.760;2023-07-31T02:10:45;12.27;;;5.55;;
27383;SDS011;14851;51.166;4.760;2023-07-31T02:13:14;14.40;;;5.05;;
27383;SDS011;14851;51.166;4.760;2023-07-31T02:15:40;17.70;;;5.35;;
27383;SDS011;14851;51.166;4.760;2023-07-31T02:18:13;17.85;;;5.97;;
27383;SDS011;14851;51.166;4.760;2023-07-31T02:20:39;16.20;;;5.40;;
27383;SDS011;14851;51.166;4.760;2023-07-31T02:23:04;13.00;;;4.72;;
27383;SDS011;14851;51.166;4.760;2023-07-31T02:25:30;14.82;;;4.75;;
27383;SDS011;14851;51.166;4.760;2023-07-31T02:27:56;14.38;;;5.47;;
27383;SDS011;14851;51.166;4.760;2023-07-31T02:30:22;13.88;;;5.00;;
27383;SDS011;14851;51.166;4.760;2023-07-31T02:32:48;13.95;;;5.28;;
27383;SDS011;14851;51.166;4.760;2023-07-31T02:35:14;15.85;;;5.45;;
27383;SDS011;14851;51.166;4.760;2023-07-31T02:37:41;14.30;;;5.32;;
27383;SDS011;14851;51.166;4.760;2023-07-31T02:40:07;12.63;;;5.00;;
27383;SDS011;14851;51.166;4.760;2023-07-31T02:42:34;21.30;;;5.90;;
27383;SDS011;14851;51.166;4.760;2023-07-31T02:45:00;17.00;;;5.43;;
27383;SDS011;14851;51.166;4.760;2023-07-31T02:47:25;11.38;;;5.10;;
27383;SDS011;14851;51.166;4.760;2023-07-31T02:49:54;12.35;;;4.80;;
27383;SDS011;14851;51.166;4.760;2023-07-31T02:52:21;15.73;;;4.95;;
27383;SDS011;14851;51.166;4.760;2023-07-31T02:54:49;11.07;;;5.00;;
27383;SDS011;14851;51.166;4.760;2023-07-31T02:57:15;15.80;;;5.25;;
27383;SDS011;14851;51.166;4.760;2023-07-31T02:59:41;12.25;;;5.07;;
27383;SDS011;14851;51.166;4.760;2023-07-31T03:02:07;15.77;;;5.15;;
27383;SDS011;14851;51.166;4.760;2023-07-31T03:04:33;12.02;;;4.97;;
27383;SDS011;14851;51.166;4.760;2023-07-31T03:06:58;18.38;;;5.90;;
27383;SDS011;14851;51.166;4.760;2023-07-31T03:09:25;14.88;;;5.65;;
27383;SDS011;14851;51.166;4.760;2023-07-31T03:11:51;14.02;;;5.10;;
27383;SDS011;14851;51.166;4.760;2023-07-31T03:14:17;15.93;;;5.18;;
27383;SDS011;14851;51.166;4.760;2023-07-31T03:16:46;12.20;;;5.20;;
27383;SDS011;14851;51.166;4.760;2023-07-31T03:19:12;14.35;;;4.90;;
27383;SDS011;14851;51.166;4.760;2023-07-31T03:21:38;12.70;;;5.00;;
27383;SDS011;14851;51.166;4.760;2023-07-31T03:24:04;13.07;;;5.65;;
27383;SDS011;14851;51.166;4.760;2023-07-31T03:26:32;17.48;;;5.00;;
27383;SDS011;14851;51.166;4.760;2023-07-31T03:28:58;15.40;;;5.47;;
27383;SDS011;14851;51.166;4.760;2023-07-31T03:31:25;18.23;;;5.45;;
27383;SDS011;14851;51.166;4.760;2023-07-31T03:33:51;12.77;;;5.00;;
27383;SDS011;14851;51.166;4.760;2023-07-31T03:36:17;14.75;;;5.75;;
27383;SDS011;14851;51.166;4.760;2023-07-31T03:38:43;14.75;;;5.30;;
27383;SDS011;14851;51.166;4.760;2023-07-31T03:41:08;11.50;;;5.38;;
27383;SDS011;14851;51.166;4.760;2023-07-31T03:43:35;15.85;;;5.95;;
27383;SDS011;14851;51.166;4.760;2023-07-31T03:46:01;15.02;;;5.53;;
27383;SDS011;14851;51.166;4.760;2023-07-31T03:48:27;14.90;;;5.65;;
27383;SDS011;14851;51.166;4.760;2023-07-31T03:50:56;12.85;;;5.88;;
27383;SDS011;14851;51.166;4.760;2023-07-31T03:53:22;12.48;;;5.20;;
27383;SDS011;14851;51.166;4.760;2023-07-31T03:55:50;10.45;;;5.00;;
27383;SDS011;14851;51.166;4.760;2023-07-31T03:58:18;11.38;;;5.32;;
27383;SDS011;14851;51.166;4.760;2023-07-31T04:00:45;13.63;;;5.70;;
27383;SDS011;14851;51.166;4.760;2023-07-31T04:03:11;16.60;;;5.05;;
27383;SDS011;14851;51.166;4.760;2023-07-31T04:05:37;12.05;;;5.15;;
27383;SDS011;14851;51.166;4.760;2023-07-31T04:08:07;12.50;;;4.90;;
27383;SDS011;14851;51.166;4.760;2023-07-31T04:10:35;10.38;;;4.38;;
27383;SDS011;14851;51.166;4.760;2023-07-31T04:13:01;11.02;;;4.97;;
27383;SDS011;14851;51.166;4.760;2023-07-31T04:15:27;10.40;;;4.90;;
27383;SDS011;14851;51.166;4.760;2023-07-31T04:17:55;8.50;;;4.20;;
27383;SDS011;14851;51.166;4.760;2023-07-31T04:20:23;11.85;;;4.30;;
27383;SDS011;14851;51.166;4.760;2023-07-31T04:22:49;9.93;;;4.80;;
27383;SDS011;14851;51.166;4.760;2023-07-31T04:25:17;10.20;;;4.50;;
27383;SDS011;14851;51.166;4.760;2023-07-31T04:27:45;9.50;;;4.57;;
27383;SDS011;14851;51.166;4.760;2023-07-31T04:30:10;10.43;;;4.75;;
27383;SDS011;14851;51.166;4.760;2023-07-31T04:32:39;11.20;;;4.95;;
27383;SDS011;14851;51.166;4.760;2023-07-31T04:35:05;7.03;;;4.95;;
27383;SDS011;14851;51.166;4.760;2023-07-31T04:37:31;11.18;;;4.53;;
27383;SDS011;14851;51.166;4.760;2023-07-31T04:39:57;7.20;;;4.45;;
27383;SDS011;14851;51.166;4.760;2023-07-31T04:42:23;9.80;;;4.70;;
27383;SDS011;14851;51.166;4.760;2023-07-31T04:44:48;8.27;;;4.88;;
27383;SDS011;14851;51.166;4.760;2023-07-31T04:47:14;7.13;;;4.60;;
27383;SDS011;14851;51.166;4.760;2023-07-31T04:49:40;8.30;;;4.65;;
27383;SDS011;14851;51.166;4.760;2023-07-31T04:52:06;7.30;;;4.60;;
27383;SDS011;14851;51.166;4.760;2023-07-31T04:54:32;6.82;;;4.35;;
27383;SDS011;14851;51.166;4.760;2023-07-31T04:57:00;6.93;;;4.30;;
27383;SDS011;14851;51.166;4.760;2023-07-31T04:59:28;7.28;;;4.15;;
27383;SDS011;14851;51.166;4.760;2023-07-31T05:01:54;6.20;;;3.92;;
27383;SDS011;14851;51.166;4.760;2023-07-31T05:04:20;9.48;;;4.50;;
27383;SDS011;14851;51.166;4.760;2023-07-31T05:06:49;7.78;;;4.07;;
27383;SDS011;14851;51.166;4.760;2023-07-31T05:09:15;8.85;;;4.50;;
27383;SDS011;14851;51.166;4.760;2023-07-31T05:11:44;11.73;;;5.03;;
27383;SDS011;14851;51.166;4.760;2023-07-31T05:14:10;6.68;;;4.70;;
27383;SDS011;14851;51.166;4.760;2023-07-31T05:16:36;6.82;;;4.28;;
27383;SDS011;14851;51.166;4.760;2023-07-31T05:19:02;5.93;;;4.32;;
27383;SDS011;14851;51.166;4.760;2023-07-31T05:21:30;7.15;;;4.55;;
27383;SDS011;14851;51.166;4.760;2023-07-31T05:23:55;6.95;;;4.68;;
27383;SDS011;14851;51.166;4.760;2023-07-31T05:26:24;7.82;;;4.65;;
27383;SDS011;14851;51.166;4.760;2023-07-31T05:28:49;7.43;;;4.85;;
27383;SDS011;14851;51.166;4.760;2023-07-31T05:31:15;10.77;;;4.80;;
27383;SDS011;14851;51.166;4.760;2023-07-31T05:33:41;9.93;;;5.05;;
27383;SDS011;14851;51.166;4.760;2023-07-31T05:36:09;10.00;;;4.88;;
27383;SDS011;14851;51.166;4.760;2023-07-31T05:38:35;9.68;;;4.80;;
27383;SDS011;14851;51.166;4.760;2023-07-31T05:41:02;10.23;;;5.20;;
27383;SDS011;14851;51.166;4.760;2023-07-31T05:43:28;11.35;;;5.38;;
27383;SDS011;14851;51.166;4.760;2023-07-31T05:45:58;9.55;;;5.28;;
27383;SDS011;14851;51.166;4.760;2023-07-31T05:48:29;10.25;;;5.35;;
27383;SDS011;14851;51.166;4.760;2023-07-31T05:50:57;5.97;;;4.82;;
27383;SDS011;14851;51.166;4.760;2023-07-31T05:53:26;9.50;;;5.30;;
27383;SDS011;14851;51.166;4.760;2023-07-31T05:55:52;7.90;;;4.90;;
27383;SDS011;14851;51.166;4.760;2023-07-31T05:58:17;7.57;;;4.80;;
27383;SDS011;14851;51.166;4.760;2023-07-31T06:00:44;8.63;;;4.80;;
27383;SDS011;14851;51.166;4.760;2023-07-31T06:03:13;8.60;;;4.80;;
27383;SDS011;14851;51.166;4.760;2023-07-31T06:08:08;10.00;;;4.63;;
27383;SDS011;14851;51.166;4.760;2023-07-31T06:10:34;7.63;;;4.53;;
27383;SDS011;14851;51.166;4.760;2023-07-31T06:13:00;9.15;;;5.03;;
27383;SDS011;14851;51.166;4.760;2023-07-31T06:15:26;7.47;;;4.65;;
27383;SDS011;14851;51.166;4.760;2023-07-31T06:17:55;8.35;;;4.75;;
27383;SDS011;14851;51.166;4.760;2023-07-31T06:20:21;7.45;;;4.00;;
27383;SDS011;14851;51.166;4.760;2023-07-31T06:22:50;7.80;;;4.07;;
27383;SDS011;14851;51.166;4.760;2023-07-31T06:25:18;8.27;;;4.75;;
27383;SDS011;14851;51.166;4.760;2023-07-31T06:27:46;8.35;;;4.55;;
27383;SDS011;14851;51.166;4.760;2023-07-31T06:30:12;6.82;;;4.57;;
27383;SDS011;14851;51.166;4.760;2023-07-31T06:32:38;9.02;;;4.40;;
27383;SDS011;14851;51.166;4.760;2023-07-31T06:35:05;7.15;;;4.47;;
27383;SDS011;14851;51.166;4.760;2023-07-31T06:37:31;7.20;;;4.90;;
27383;SDS011;14851;51.166;4.760;2023-07-31T06:39:57;9.13;;;4.30;;
27383;SDS011;14851;51.166;4.760;2023-07-31T06:42:24;8.40;;;4.47;;
27383;SDS011;14851;51.166;4.760;2023-07-31T06:44:50;8.93;;;4.82;;
27383;SDS011;14851;51.166;4.760;2023-07-31T06:47:16;7.07;;;4.72;;
27383;SDS011;14851;51.166;4.760;2023-07-31T06:49:42;7.03;;;4.40;;
27383;SDS011;14851;51.166;4.760;2023-07-31T06:52:09;7.70;;;4.22;;
27383;SDS011;14851;51.166;4.760;2023-07-31T06:54:36;5.38;;;3.83;;
27383;SDS011;14851;51.166;4.760;2023-07-31T06:57:02;6.95;;;4.32;;
27383;SDS011;14851;51.166;4.760;2023-07-31T06:59:31;8.07;;;4.18;;
27383;SDS011;14851;51.166;4.760;2023-07-31T07:02:00;8.57;;;4.47;;
27383;SDS011;14851;51.166;4.760;2023-07-31T07:04:28;9.25;;;4.55;;
27383;SDS011;14851;51.166;4.760;2023-07-31T07:06:55;9.93;;;4.47;;
27383;SDS011;14851;51.166;4.760;2023-07-31T07:09:21;8.95;;;4.65;;
27383;SDS011;14851;51.166;4.760;2023-07-31T07:11:46;8.55;;;4.30;;
27383;SDS011;14851;51.166;4.760;2023-07-31T07:14:12;7.55;;;4.45;;
27383;SDS011;14851;51.166;4.760;2023-07-31T07:16:38;9.40;;;4.63;;
27383;SDS011;14851;51.166;4.760;2023-07-31T07:19:07;9.75;;;5.07;;
27383;SDS011;14851;51.166;4.760;2023-07-31T07:21:33;8.00;;;4.72;;
27383;SDS011;14851;51.166;4.760;2023-07-31T07:23:59;7.60;;;4.05;;
27383;SDS011;14851;51.166;4.760;2023-07-31T07:26:25;8.80;;;3.92;;
27383;SDS011;14851;51.166;4.760;2023-07-31T07:28:51;9.02;;;4.75;;
27383;SDS011;14851;51.166;4.760;2023-07-31T07:31:17;8.80;;;4.80;;
27383;SDS011;14851;51.166;4.760;2023-07-31T07:33:43;9.90;;;4.38;;
27383;SDS011;14851;51.166;4.760;2023-07-31T07:36:12;9.68;;;4.45;;
27383;SDS011;14851;51.166;4.760;2023-07-31T07:38:38;8.25;;;4.47;;
27383;SDS011;14851;51.166;4.760;2023-07-31T07:41:04;10.50;;;4.57;;
27383;SDS011;14851;51.166;4.760;2023-07-31T07:43:31;10.15;;;4.40;;
27383;SDS011;14851;51.166;4.760;2023-07-31T07:45:57;11.68;;;5.13;;
27383;SDS011;14851;51.166;4.760;2023-07-31T07:48:23;10.63;;;4.65;;
27383;SDS011;14851;51.166;4.760;2023-07-31T07:50:50;9.85;;;5.03;;
27383;SDS011;14851;51.166;4.760;2023-07-31T07:53:20;7.30;;;4.97;;
27383;SDS011;14851;51.166;4.760;2023-07-31T07:55:46;11.55;;;4.60;;
27383;SDS011;14851;51.166;4.760;2023-07-31T07:58:14;9.77;;;4.72;;
27383;SDS011;14851;51.166;4.760;2023-07-31T08:00:41;7.18;;;4.32;;
27383;SDS011;14851;51.166;4.760;2023-07-31T08:03:10;8.95;;;5.07;;
27383;SDS011;14851;51.166;4.760;2023-07-31T08:05:39;7.57;;;4.25;;
27383;SDS011;14851;51.166;4.760;2023-07-31T08:08:07;8.57;;;4.30;;
27383;SDS011;14851;51.166;4.760;2023-07-31T08:10:33;11.38;;;4.32;;
27383;SDS011;14851;51.166;4.760;2023-07-31T08:12:59;11.30;;;4.85;;
27383;SDS011;14851;51.166;4.760;2023-07-31T08:15:25;9.23;;;3.85;;
27383;SDS011;14851;51.166;4.760;2023-07-31T08:17:54;6.97;;;3.72;;
27383;SDS011;14851;51.166;4.760;2023-07-31T08:20:19;7.70;;;4.00;;
27383;SDS011;14851;51.166;4.760;2023-07-31T08:22:47;6.43;;;3.58;;
27383;SDS011;14851;51.166;4.760;2023-07-31T08:25:12;6.18;;;3.65;;
27383;SDS011;14851;51.166;4.760;2023-07-31T08:27:38;7.05;;;3.40;;
27383;SDS011;14851;51.166;4.760;2023-07-31T08:30:07;7.88;;;3.97;;
27383;SDS011;14851;51.166;4.760;2023-07-31T08:32:34;7.15;;;3.80;;
27383;SDS011;14851;51.166;4.760;2023-07-31T08:35:04;8.45;;;3.45;;
27383;SDS011;14851;51.166;4.760;2023-07-31T08:37:30;7.75;;;3.67;;
27383;SDS011;14851;51.166;4.760;2023-07-31T08:39:55;8.00;;;3.67;;
27383;SDS011;14851;51.166;4.760;2023-07-31T08:42:23;9.27;;;3.50;;
27383;SDS011;14851;51.166;4.760;2023-07-31T08:44:51;4.95;;;3.00;;
27383;SDS011;14851;51.166;4.760;2023-07-31T08:47:19;5.38;;;2.95;;
27383;SDS011;14851;51.166;4.760;2023-07-31T08:49:47;8.15;;;3.30;;
27383;SDS011;14851;51.166;4.760;2023-07-31T08:52:13;4.82;;;2.70;;
27383;SDS011;14851;51.166;4.760;2023-07-31T08:54:39;4.20;;;3.33;;
27383;SDS011;14851;51.166;4.760;2023-07-31T08:57:08;5.75;;;3.03;;
27383;SDS011;14851;51.166;4.760;2023-07-31T08:59:36;5.60;;;3.08;;
27383;SDS011;14851;51.166;4.760;2023-07-31T09:02:05;7.43;;;3.58;;
27383;SDS011;14851;51.166;4.760;2023-07-31T09:04:32;6.30;;;2.65;;
27383;SDS011;14851;51.166;4.760;2023-07-31T09:07:02;4.53;;;2.38;;
27383;SDS011;14851;51.166;4.760;2023-07-31T09:09:32;3.65;;;2.70;;
27383;SDS011;14851;51.166;4.760;2023-07-31T09:11:58;6.88;;;2.60;;
27383;SDS011;14851;51.166;4.760;2023-07-31T09:14:25;4.78;;;2.45;;
27383;SDS011;14851;51.166;4.760;2023-07-31T09:16:57;5.88;;;2.75;;
27383;SDS011;14851;51.166;4.760;2023-07-31T09:19:34;6.47;;;2.95;;
27383;SDS011;14851;51.166;4.760;2023-07-31T09:22:04;6.60;;;3.03;;
27383;SDS011;14851;51.166;4.760;2023-07-31T09:24:32;5.22;;;2.65;;
27383;SDS011;14851;51.166;4.760;2023-07-31T09:26:59;7.15;;;2.85;;
27383;SDS011;14851;51.166;4.760;2023-07-31T09:29:27;5.90;;;2.90;;
27383;SDS011;14851;51.166;4.760;2023-07-31T09:31:57;5.50;;;2.63;;
27383;SDS011;14851;51.166;4.760;2023-07-31T09:34:30;5.25;;;2.13;;
27383;SDS011;14851;51.166;4.760;2023-07-31T09:37:04;5.40;;;3.10;;
27383;SDS011;14851;51.166;4.760;2023-07-31T09:39:32;5.13;;;2.80;;
27383;SDS011;14851;51.166;4.760;2023-07-31T09:42:11;7.95;;;2.75;;
27383;SDS011;14851;51.166;4.760;2023-07-31T09:44:40;6.57;;;3.25;;
27383;SDS011;14851;51.166;4.760;2023-07-31T09:47:06;8.10;;;3.92;;
27383;SDS011;14851;51.166;4.760;2023-07-31T09:49:34;5.72;;;2.88;;
27383;SDS011;14851;51.166;4.760;2023-07-31T09:52:02;5.50;;;2.90;;
27383;SDS011;14851;51.166;4.760;2023-07-31T09:54:40;6.93;;;2.83;;
27383;SDS011;14851;51.166;4.760;2023-07-31T09:57:06;5.95;;;3.13;;
27383;SDS011;14851;51.166;4.760;2023-07-31T09:59:34;7.38;;;3.80;;
27383;SDS011;14851;51.166;4.760;2023-07-31T10:02:01;9.32;;;3.28;;
27383;SDS011;14851;51.166;4.760;2023-07-31T10:04:29;5.40;;;3.22;;
27383;SDS011;14851;51.166;4.760;2023-07-31T10:06:56;6.95;;;3.40;;
27383;SDS011;14851;51.166;4.760;2023-07-31T10:09:24;6.32;;;3.45;;
27383;SDS011;14851;51.166;4.760;2023-07-31T10:11:55;7.13;;;3.30;;
27383;SDS011;14851;51.166;4.760;2023-07-31T10:14:27;4.70;;;3.13;;
27383;SDS011;14851;51.166;4.760;2023-07-31T10:16:54;6.03;;;2.67;;
27383;SDS011;14851;51.166;4.760;2023-07-31T10:19:22;5.20;;;3.33;;
27383;SDS011;14851;51.166;4.760;2023-07-31T10:21:49;6.53;;;3.05;;
27383;SDS011;14851;51.166;4.760;2023-07-31T10:24:24;4.80;;;3.03;;
27383;SDS011;14851;51.166;4.760;2023-07-31T10:26:53;6.93;;;3.67;;
27383;SDS011;14851;51.166;4.760;2023-07-31T10:29:24;6.00;;;3.00;;
27383;SDS011;14851;51.166;4.760;2023-07-31T10:31:55;5.85;;;2.92;;
27383;SDS011;14851;51.166;4.760;2023-07-31T10:34:23;7.43;;;3.13;;
27383;SDS011;14851;51.166;4.760;2023-07-31T10:37:19;6.97;;;2.97;;
27383;SDS011;14851;51.166;4.760;2023-07-31T10:39:58;5.38;;;2.63;;
27383;SDS011;14851;51.166;4.760;2023-07-31T10:42:32;3.72;;;2.15;;
27383;SDS011;14851;51.166;4.760;2023-07-31T10:45:00;3.15;;;2.08;;
27383;SDS011;14851;51.166;4.760;2023-07-31T10:47:28;3.92;;;2.80;;
27383;SDS011;14851;51.166;4.760;2023-07-31T10:52:53;4.28;;;2.40;;
27383;SDS011;14851;51.166;4.760;2023-07-31T10:58:09;3.67;;;2.33;;
27383;SDS011;14851;51.166;4.760;2023-07-31T11:00:37;5.25;;;2.75;;
27383;SDS011;14851;51.166;4.760;2023-07-31T11:03:16;3.90;;;2.28;;
27383;SDS011;14851;51.166;4.760;2023-07-31T11:08:13;5.93;;;2.85;;
27383;SDS011;14851;51.166;4.760;2023-07-31T11:10:47;5.38;;;2.75;;
27383;SDS011;14851;51.166;4.760;2023-07-31T11:13:16;7.47;;;4.10;;
27383;SDS011;14851;51.166;4.760;2023-07-31T11:15:42;5.55;;;3.60;;
27383;SDS011;14851;51.166;4.760;2023-07-31T11:18:10;6.70;;;3.47;;
27383;SDS011;14851;51.166;4.760;2023-07-31T11:20:37;5.38;;;2.88;;
27383;SDS011;14851;51.166;4.760;2023-07-31T11:23:05;7.13;;;4.10;;
27383;SDS011;14851;51.166;4.760;2023-07-31T11:25:33;6.43;;;3.60;;
27383;SDS011;14851;51.166;4.760;2023-07-31T11:28:06;5.90;;;4.22;;
27383;SDS011;14851;51.166;4.760;2023-07-31T11:30:33;5.78;;;3.22;;
27383;SDS011;14851;51.166;4.760;2023-07-31T11:33:03;8.82;;;4.45;;
27383;SDS011;14851;51.166;4.760;2023-07-31T11:35:33;10.40;;;4.07;;
27383;SDS011;14851;51.166;4.760;2023-07-31T11:38:33;8.48;;;3.28;;
27383;SDS011;14851;51.166;4.760;2023-07-31T11:41:05;5.78;;;3.47;;
27383;SDS011;14851;51.166;4.760;2023-07-31T11:43:31;6.78;;;4.13;;
27383;SDS011;14851;51.166;4.760;2023-07-31T11:45:58;5.25;;;3.25;;
27383;SDS011;14851;51.166;4.760;2023-07-31T11:48:37;6.50;;;3.38;;
27383;SDS011;14851;51.166;4.760;2023-07-31T11:51:04;7.18;;;4.05;;
27383;SDS011;14851;51.166;4.760;2023-07-31T11:56:03;7.03;;;3.65;;
27383;SDS011;14851;51.166;4.760;2023-07-31T11:58:31;9.30;;;4.03;;
27383;SDS011;14851;51.166;4.760;2023-07-31T12:00:59;7.32;;;4.28;;
27383;SDS011;14851;51.166;4.760;2023-07-31T12:03:26;8.95;;;4.38;;
27383;SDS011;14851;51.166;4.760;2023-07-31T12:05:53;11.20;;;4.68;;
27383;SDS011;14851;51.166;4.760;2023-07-31T12:08:23;8.10;;;3.85;;
27383;SDS011;14851;51.166;4.760;2023-07-31T12:10:51;7.93;;;3.70;;
27383;SDS011;14851;51.166;4.760;2023-07-31T12:13:25;7.57;;;3.67;;
27383;SDS011;14851;51.166;4.760;2023-07-31T12:15:57;8.95;;;4.50;;
27383;SDS011;14851;51.166;4.760;2023-07-31T12:18:25;10.10;;;3.80;;
27383;SDS011;14851;51.166;4.760;2023-07-31T12:20:58;10.27;;;4.40;;
27383;SDS011;14851;51.166;4.760;2023-07-31T12:23:28;8.98;;;3.83;;
27383;SDS011;14851;51.166;4.760;2023-07-31T12:26:04;7.78;;;4.22;;
27383;SDS011;14851;51.166;4.760;2023-07-31T12:28:43;6.45;;;3.65;;
27383;SDS011;14851;51.166;4.760;2023-07-31T12:31:15;6.10;;;3.42;;
27383;SDS011;14851;51.166;4.760;2023-07-31T12:33:45;6.53;;;3.65;;
27383;SDS011;14851;51.166;4.760;2023-07-31T12:36:16;8.82;;;4.00;;
27383;SDS011;14851;51.166;4.760;2023-07-31T12:38:46;7.30;;;3.85;;
27383;SDS011;14851;51.166;4.760;2023-07-31T12:41:12;6.40;;;3.80;;
27383;SDS011;14851;51.166;4.760;2023-07-31T12:43:39;7.03;;;3.65;;
27383;SDS011;14851;51.166;4.760;2023-07-31T12:46:06;6.85;;;4.05;;
27383;SDS011;14851;51.166;4.760;2023-07-31T12:48:34;7.05;;;3.80;;
27383;SDS011;14851;51.166;4.760;2023-07-31T12:51:00;8.23;;;3.90;;
27383;SDS011;14851;51.166;4.760;2023-07-31T12:53:27;6.97;;;4.10;;
27383;SDS011;14851;51.166;4.760;2023-07-31T12:55:56;12.13;;;4.40;;
27383;SDS011;14851;51.166;4.760;2023-07-31T12:58:22;7.03;;;3.70;;
27383;SDS011;14851;51.166;4.760;2023-07-31T13:00:48;8.48;;;4.57;;
27383;SDS011;14851;51.166;4.760;2023-07-31T13:03:14;8.60;;;4.30;;
27383;SDS011;14851;51.166;4.760;2023-07-31T13:05:40;9.93;;;4.50;;
27383;SDS011;14851;51.166;4.760;2023-07-31T13:08:08;8.25;;;3.85;;
27383;SDS011;14851;51.166;4.760;2023-07-31T13:10:37;10.10;;;4.47;;
27383;SDS011;14851;51.166;4.760;2023-07-31T13:13:03;8.48;;;4.40;;
27383;SDS011;14851;51.166;4.760;2023-07-31T13:15:29;10.18;;;4.28;;
27383;SDS011;14851;51.166;4.760;2023-07-31T13:17:55;6.35;;;3.85;;
27383;SDS011;14851;51.166;4.760;2023-07-31T13:20:20;8.10;;;3.75;;
27383;SDS011;14851;51.166;4.760;2023-07-31T13:22:46;7.35;;;3.88;;
27383;SDS011;14851;51.166;4.760;2023-07-31T13:25:12;6.18;;;3.88;;
27383;SDS011;14851;51.166;4.760;2023-07-31T13:27:40;6.07;;;3.75;;
27383;SDS011;14851;51.166;4.760;2023-07-31T13:30:08;7.38;;;3.67;;
27383;SDS011;14851;51.166;4.760;2023-07-31T13:32:37;7.30;;;3.95;;
27383;SDS011;14851;51.166;4.760;2023-07-31T13:35:07;9.45;;;4.72;;
27383;SDS011;14851;51.166;4.760;2023-07-31T13:37:33;9.77;;;5.28;;
27383;SDS011;14851;51.166;4.760;2023-07-31T13:39:59;7.95;;;4.60;;
27383;SDS011;14851;51.166;4.760;2023-07-31T13:42:31;8.93;;;4.00;;
27383;SDS011;14851;51.166;4.760;2023-07-31T13:44:57;7.30;;;4.00;;
27383;SDS011;14851;51.166;4.760;2023-07-31T13:47:23;7.93;;;4.40;;
27383;SDS011;14851;51.166;4.760;2023-07-31T13:49:51;7.72;;;4.15;;
27383;SDS011;14851;51.166;4.760;2023-07-31T13:52:17;7.22;;;4.00;;
27383;SDS011;14851;51.166;4.760;2023-07-31T13:54:45;9.18;;;4.43;;
27383;SDS011;14851;51.166;4.760;2023-07-31T13:57:14;8.00;;;4.32;;
27383;SDS011;14851;51.166;4.760;2023-07-31T13:59:40;8.02;;;3.25;;
27383;SDS011;14851;51.166;4.760;2023-07-31T14:02:07;5.65;;;3.30;;
27383;SDS011;14851;51.166;4.760;2023-07-31T14:04:32;6.28;;;2.53;;
27383;SDS011;14851;51.166;4.760;2023-07-31T14:06:58;3.55;;;2.20;;
27383;SDS011;14851;51.166;4.760;2023-07-31T14:09:24;5.10;;;1.95;;
27383;SDS011;14851;51.166;4.760;2023-07-31T14:11:50;3.92;;;1.90;;
27383;SDS011;14851;51.166;4.760;2023-07-31T14:14:18;3.72;;;1.73;;
27383;SDS011;14851;51.166;4.760;2023-07-31T14:16:44;5.60;;;2.05;;
27383;SDS011;14851;51.166;4.760;2023-07-31T14:19:10;4.60;;;1.70;;
27383;SDS011;14851;51.166;4.760;2023-07-31T14:21:36;5.25;;;2.00;;
27383;SDS011;14851;51.166;4.760;2023-07-31T14:24:02;4.03;;;1.83;;
27383;SDS011;14851;51.166;4.760;2023-07-31T14:26:28;2.63;;;1.48;;
27383;SDS011;14851;51.166;4.760;2023-07-31T14:28:55;3.97;;;2.22;;
27383;SDS011;14851;51.166;4.760;2023-07-31T14:31:24;3.35;;;2.00;;
27383;SDS011;14851;51.166;4.760;2023-07-31T14:33:50;4.15;;;2.10;;
27383;SDS011;14851;51.166;4.760;2023-07-31T14:36:16;4.10;;;1.75;;
27383;SDS011;14851;51.166;4.760;2023-07-31T14:38:42;4.80;;;1.70;;
27383;SDS011;14851;51.166;4.760;2023-07-31T14:41:09;4.43;;;2.47;;
27383;SDS011;14851;51.166;4.760;2023-07-31T14:43:38;3.63;;;2.00;;
27383;SDS011;14851;51.166;4.760;2023-07-31T14:46:06;3.97;;;2.15;;
27383;SDS011;14851;51.166;4.760;2023-07-31T14:48:34;4.63;;;2.35;;
27383;SDS011;14851;51.166;4.760;2023-07-31T14:51:01;3.03;;;1.75;;
27383;SDS011;14851;51.166;4.760;2023-07-31T14:53:27;3.20;;;1.70;;
27383;SDS011;14851;51.166;4.760;2023-07-31T14:55:53;3.88;;;2.08;;
27383;SDS011;14851;51.166;4.760;2023-07-31T14:58:20;4.18;;;2.00;;
27383;SDS011;14851;51.166;4.760;2023-07-31T15:00:47;2.53;;;1.85;;
27383;SDS011;14851;51.166;4.760;2023-07-31T15:03:12;6.15;;;2.15;;
27383;SDS011;14851;51.166;4.760;2023-07-31T15:05:38;2.95;;;2.08;;
27383;SDS011;14851;51.166;4.760;2023-07-31T15:08:04;3.72;;;1.98;;
27383;SDS011;14851;51.166;4.760;2023-07-31T15:10:30;2.92;;;1.83;;